| time (UTC) | temp C | wind direction | speed KPH | gust KPH | rain 1hr cm | rain 24hr cm | rain mn cm | humidity % | barometer mb |
| 20260503050134 | 5 | 29 | 0.0 | 0.0 | 0.00 | 0.00 | 0.00 | 49 | 1015.1 |
| 20260503045632 | 5 | 58 | 1.6 | 1.6 | 0.00 | 0.00 | 0.00 | 49 | 1015.3 |
| 20260503045129 | 5 | 42 | 0.0 | 0.0 | 0.00 | 0.00 | 0.00 | 49 | 1015.3 |
| 20260503044625 | 5 | 41 | 0.0 | 0.0 | 0.00 | 0.00 | 0.00 | 49 | 1015.3 |
| 20260503044123 | 4 | 43 | 0.0 | 0.0 | 0.00 | 0.00 | 0.00 | 50 | 1015.6 |
| 20260503043619 | 4 | 32 | 0.0 | 0.0 | 0.00 | 0.00 | 0.00 | 51 | 1015.7 |
| 20260503043116 | 4 | 32 | 0.0 | 0.0 | 0.00 | 0.00 | 0.00 | 51 | 1015.6 |
| 20260503042613 | 4 | 32 | 0.0 | 0.0 | 0.00 | 0.00 | 0.00 | 51 | 1015.7 |
| 20260503042109 | 4 | 32 | 0.0 | 0.0 | 0.00 | 0.00 | 0.00 | 51 | 1015.6 |
| 20260503041605 | 4 | 32 | 0.0 | 0.0 | 0.00 | 0.00 | 0.00 | 51 | 1015.6 |
| 20260503041104 | 5 | 32 | 0.0 | 0.0 | 0.00 | 0.00 | 0.00 | 51 | 1015.9 |
| 20260503040600 | 5 | 32 | 0.0 | 0.0 | 0.00 | 0.00 | 0.00 | 51 | 1015.7 |
| 20260503040058 | 4 | 32 | 0.0 | 0.0 | 0.00 | 0.00 | 0.00 | 50 | 1015.7 |
| 20260503035554 | 4 | 32 | 0.0 | 0.0 | 0.00 | 0.00 | 0.00 | 50 | 1015.8 |
| 20260503035052 | 5 | 33 | 0.0 | 0.0 | 0.00 | 0.00 | 0.00 | 51 | 1016.0 |
| 20260503034549 | 4 | 33 | 0.0 | 0.0 | 0.00 | 0.00 | 0.00 | 51 | 1015.9 |
| 20260503034046 | 4 | 28 | 0.0 | 0.0 | 0.00 | 0.00 | 0.00 | 51 | 1016.0 |
| 20260503033543 | 4 | 28 | 0.0 | 0.0 | 0.00 | 0.00 | 0.00 | 51 | 1016.1 |
| 20260503033041 | 5 | 28 | 0.0 | 0.0 | 0.00 | 0.00 | 0.00 | 50 | 1016.0 |
| 20260503032539 | 5 | 28 | 0.0 | 0.0 | 0.00 | 0.00 | 0.00 | 51 | 1016.2 |
| 20260503032037 | 5 | 21 | 0.0 | 0.0 | 0.00 | 0.00 | 0.00 | 50 | 1016.2 |
| 20260503031535 | 5 | 33 | 0.0 | 0.0 | 0.00 | 0.00 | 0.00 | 50 | 1016.2 |
| 20260503031032 | 5 | 33 | 0.0 | 0.0 | 0.00 | 0.00 | 0.00 | 50 | 1016.3 |
| 20260503030527 | 5 | 25 | 0.0 | 0.0 | 0.00 | 0.00 | 0.00 | 51 | 1016.4 |
| 20260503030025 | 5 | 25 | 0.0 | 0.0 | 0.00 | 0.00 | 0.00 | 51 | 1016.3 |
| 20260503025521 | 5 | 25 | 0.0 | 0.0 | 0.00 | 0.00 | 0.00 | 51 | 1016.3 |
| 20260503025019 | 5 | 25 | 0.0 | 0.0 | 0.00 | 0.00 | 0.00 | 52 | 1016.3 |
| 20260503024515 | 5 | 24 | 0.0 | 0.0 | 0.00 | 0.00 | 0.00 | 52 | 1016.4 |
| 20260503024013 | 5 | 24 | 0.0 | 0.0 | 0.00 | 0.00 | 0.00 | 52 | 1016.6 |
| 20260503023509 | 5 | 23 | 0.0 | 0.0 | 0.00 | 0.00 | 0.00 | 52 | 1016.4 |
| 20260503023007 | 5 | 23 | 0.0 | 0.0 | 0.00 | 0.00 | 0.00 | 52 | 1016.4 |
| 20260503022502 | 5 | 24 | 0.0 | 0.0 | 0.00 | 0.00 | 0.00 | 52 | 1016.4 |
| 20260503021957 | 5 | 28 | 0.0 | 0.0 | 0.00 | 0.00 | 0.00 | 51 | 1016.4 |
| 20260503021454 | 5 | 35 | 0.0 | 0.0 | 0.00 | 0.00 | 0.00 | 51 | 1016.4 |
| 20260503020951 | 5 | 34 | 0.0 | 0.0 | 0.00 | 0.00 | 0.00 | 51 | 1016.5 |
| 20260503020449 | 5 | 35 | 0.0 | 0.0 | 0.00 | 0.00 | 0.00 | 50 | 1016.4 |
| 20260503015945 | 5 | 31 | 0.0 | 0.0 | 0.00 | 0.00 | 0.00 | 50 | 1016.5 |
| 20260503015442 | 5 | 31 | 0.0 | 0.0 | 0.00 | 0.00 | 0.00 | 49 | 1016.2 |
| 20260503014938 | 5 | 35 | 0.0 | 0.0 | 0.00 | 0.00 | 0.00 | 48 | 1016.3 |
| 20260503014435 | 5 | 35 | 0.0 | 0.0 | 0.00 | 0.00 | 0.00 | 49 | 1016.3 |
| 20260503013933 | 5 | 32 | 0.0 | 0.0 | 0.00 | 0.00 | 0.00 | 48 | 1016.4 |
| 20260503013430 | 6 | 31 | 0.0 | 0.0 | 0.00 | 0.00 | 0.00 | 48 | 1016.4 |
| 20260503012927 | 6 | 30 | 0.0 | 0.0 | 0.00 | 0.00 | 0.00 | 47 | 1016.3 |
| 20260503012425 | 6 | 32 | 0.0 | 0.0 | 0.00 | 0.00 | 0.00 | 46 | 1016.2 |
| 20260503011921 | 6 | 31 | 0.0 | 0.0 | 0.00 | 0.00 | 0.00 | 45 | 1016.1 |
| 20260503011418 | 6 | 33 | 0.0 | 0.0 | 0.00 | 0.00 | 0.00 | 44 | 1016.2 |
| 20260503010915 | 6 | 37 | 0.0 | 1.6 | 0.00 | 0.00 | 0.00 | 44 | 1016.3 |
| 20260503010412 | 6 | 37 | 0.0 | 0.0 | 0.00 | 0.00 | 0.00 | 43 | 1016.3 |
| 20260503005909 | 7 | 36 | 0.0 | 0.0 | 0.00 | 0.00 | 0.00 | 43 | 1016.2 |
| 20260503005407 | 7 | 43 | 1.6 | 1.6 | 0.00 | 0.00 | 0.00 | 42 | 1016.1 |
| 20260503004902 | 7 | 32 | 1.6 | 1.6 | 0.00 | 0.00 | 0.00 | 42 | 1016.1 |
| 20260503004400 | 7 | 25 | 0.0 | 0.0 | 0.00 | 0.00 | 0.00 | 42 | 1016.1 |
| 20260503003857 | 7 | 25 | 1.6 | 1.6 | 0.00 | 0.00 | 0.00 | 41 | 1016.2 |
| 20260503003354 | 7 | 24 | 0.0 | 0.0 | 0.00 | 0.00 | 0.00 | 41 | 1016.1 |
| 20260503002851 | 7 | 19 | 1.6 | 4.8 | 0.00 | 0.00 | 0.00 | 41 | 1016.3 |
| 20260503002348 | 7 | 17 | 1.6 | 1.6 | 0.00 | 0.00 | 0.00 | 40 | 1016.0 |
| 20260503001844 | 7 | 11 | 0.0 | 0.0 | 0.00 | 0.00 | 0.00 | 41 | 1016.3 |
| 20260503001341 | 8 | 33 | 0.0 | 0.0 | 0.00 | 0.00 | 0.00 | 39 | 1016.0 |
| 20260503000838 | 8 | 25 | 0.0 | 0.0 | 0.00 | 0.00 | 0.00 | 39 | 1016.1 |
| 20260503000336 | 8 | 14 | 1.6 | 1.6 | 0.00 | 0.00 | 0.00 | 38 | 1016.1 |
| 20260502235833 | 8 | 15 | 3.2 | 4.8 | 0.00 | 0.00 | 0.00 | 36 | 1016.1 |
| 20260502235330 | 8 | 12 | 1.6 | 1.6 | 0.00 | 0.00 | 0.00 | 36 | 1016.3 |
| 20260502234826 | 8 | 17 | 0.0 | 1.6 | 0.00 | 0.00 | 0.00 | 36 | 1016.3 |
| 20260502234323 | 8 | 13 | 0.0 | 1.6 | 0.00 | 0.00 | 0.00 | 35 | 1016.2 |
| 20260502233820 | 8 | 9 | 6.4 | 9.7 | 0.00 | 0.00 | 0.00 | 33 | 1016.0 |
| 20260502233316 | 9 | 14 | 0.0 | 0.0 | 0.00 | 0.00 | 0.00 | 34 | 1016.2 |
| 20260502232813 | 9 | 10 | 3.2 | 3.2 | 0.00 | 0.00 | 0.00 | 32 | 1016.4 |
| 20260502232310 | 9 | 7 | 3.2 | 3.2 | 0.00 | 0.00 | 0.00 | 32 | 1016.2 |
| 20260502231806 | 9 | 11 | 3.2 | 3.2 | 0.00 | 0.00 | 0.00 | 32 | 1016.1 |
| 20260502231304 | 9 | 9 | 3.2 | 3.2 | 0.00 | 0.00 | 0.00 | 33 | 1016.3 |
| 20260502230802 | 9 | 27 | 1.6 | 3.2 | 0.00 | 0.00 | 0.00 | 32 | 1016.3 |
| 20260502230300 | 9 | 4 | 4.8 | 4.8 | 0.00 | 0.00 | 0.00 | 33 | 1016.4 |
| 20260502225756 | 9 | 23 | 0.0 | 0.0 | 0.00 | 0.00 | 0.00 | 32 | 1016.5 |
| 20260502225253 | 9 | 20 | 1.6 | 3.2 | 0.00 | 0.00 | 0.00 | 33 | 1016.5 |
| 20260502224749 | 9 | 22 | 1.6 | 1.6 | 0.00 | 0.00 | 0.00 | 33 | 1016.3 |
| 20260502224246 | 10 | 11 | 1.6 | 1.6 | 0.00 | 0.00 | 0.00 | 33 | 1016.5 |
| 20260502223744 | 10 | 17 | 3.2 | 3.2 | 0.00 | 0.00 | 0.00 | 33 | 1016.3 |
| 20260502223242 | 9 | 19 | 1.6 | 1.6 | 0.00 | 0.00 | 0.00 | 33 | 1016.4 |
| 20260502222739 | 9 | 26 | 1.6 | 1.6 | 0.00 | 0.00 | 0.00 | 34 | 1016.6 |
| 20260502222236 | 9 | 15 | 3.2 | 3.2 | 0.00 | 0.00 | 0.00 | 33 | 1016.7 |
| 20260502221731 | 9 | 14 | 3.2 | 4.8 | 0.00 | 0.00 | 0.00 | 33 | 1016.5 |
| 20260502221228 | 9 | 14 | 6.4 | 9.7 | 0.00 | 0.00 | 0.00 | 32 | 1016.6 |
| 20260502220725 | 9 | 12 | 4.8 | 6.4 | 0.00 | 0.00 | 0.00 | 33 | 1016.7 |
| 20260502220221 | 9 | 14 | 1.6 | 3.2 | 0.00 | 0.00 | 0.00 | 34 | 1016.7 |
| 20260502215718 | 9 | 12 | 8.0 | 11.3 | 0.00 | 0.00 | 0.00 | 33 | 1016.7 |
| 20260502215215 | 10 | 14 | 4.8 | 4.8 | 0.00 | 0.00 | 0.00 | 33 | 1016.6 |
| 20260502214713 | 10 | 19 | 1.6 | 1.6 | 0.00 | 0.00 | 0.00 | 35 | 1016.5 |
| 20260502214210 | 10 | 21 | 1.6 | 1.6 | 0.00 | 0.00 | 0.00 | 36 | 1016.7 |
| 20260502213707 | 10 | 15 | 1.6 | 3.2 | 0.00 | 0.00 | 0.00 | 35 | 1016.7 |
| 20260502213204 | 10 | 17 | 6.4 | 11.3 | 0.00 | 0.00 | 0.00 | 35 | 1016.7 |
| 20260502212702 | 10 | 29 | 1.6 | 1.6 | 0.00 | 0.00 | 0.00 | 36 | 1016.7 |
| 20260502212200 | 9 | 16 | 0.0 | 1.6 | 0.00 | 0.00 | 0.00 | 38 | 1016.6 |
| 20260502211656 | 10 | 12 | 6.4 | 11.3 | 0.00 | 0.00 | 0.00 | 35 | 1016.7 |
| 20260502211153 | 10 | 16 | 6.4 | 9.7 | 0.00 | 0.00 | 0.00 | 35 | 1016.8 |
| 20260502210650 | 10 | 17 | 3.2 | 3.2 | 0.00 | 0.00 | 0.00 | 36 | 1016.6 |
| 20260502210147 | 10 | 23 | 0.0 | 0.0 | 0.00 | 0.00 | 0.00 | 38 | 1016.7 |
| 20260502205644 | 10 | 19 | 3.2 | 3.2 | 0.00 | 0.00 | 0.00 | 38 | 1016.8 |
| 20260502205141 | 10 | 13 | 1.6 | 3.2 | 0.00 | 0.00 | 0.00 | 38 | 1016.9 |
| 20260502204638 | 9 | 18 | 3.2 | 4.8 | 0.00 | 0.00 | 0.00 | 38 | 1017.0 |
| 20260502204135 | 10 | 28 | 1.6 | 1.6 | 0.00 | 0.00 | 0.00 | 37 | 1017.0 |
| 20260502203632 | 10 | 16 | 0.0 | 1.6 | 0.00 | 0.00 | 0.00 | 40 | 1017.0 |
| 20260502203130 | 9 | 12 | 3.2 | 3.2 | 0.00 | 0.00 | 0.00 | 41 | 1017.1 |
| 20260502202625 | 10 | 161 | 6.4 | 6.4 | 0.00 | 0.00 | 0.00 | 38 | 1017.2 |
| 20260502202123 | 10 | 22 | 6.4 | 9.7 | 0.00 | 0.00 | 0.00 | 36 | 1017.1 |
| 20260502201620 | 9 | 161 | 3.2 | 6.4 | 0.00 | 0.00 | 0.00 | 39 | 1017.2 |
| 20260502201116 | 10 | 76 | 1.6 | 3.2 | 0.00 | 0.00 | 0.00 | 38 | 1017.2 |
| 20260502200612 | 10 | 46 | 1.6 | 1.6 | 0.00 | 0.00 | 0.00 | 39 | 1017.4 |
| 20260502200110 | 10 | 72 | 3.2 | 6.4 | 0.00 | 0.00 | 0.00 | 41 | 1017.3 |
| 20260502195608 | 10 | 11 | 8.0 | 11.3 | 0.00 | 0.00 | 0.00 | 38 | 1017.3 |
| 20260502195103 | 10 | 23 | 0.0 | 1.6 | 0.00 | 0.00 | 0.00 | 39 | 1017.6 |
| 20260502194600 | 10 | 84 | 0.0 | 1.6 | 0.00 | 0.00 | 0.00 | 41 | 1017.6 |
| 20260502194056 | 10 | 27 | 1.6 | 3.2 | 0.00 | 0.00 | 0.00 | 41 | 1017.6 |
| 20260502193554 | 9 | 22 | 1.6 | 1.6 | 0.00 | 0.00 | 0.00 | 40 | 1017.4 |
| 20260502193050 | 8 | 25 | 1.6 | 3.2 | 0.00 | 0.00 | 0.00 | 42 | 1017.6 |
| 20260502192546 | 8 | 3 | 3.2 | 4.8 | 0.00 | 0.00 | 0.00 | 41 | 1017.8 |
| 20260502192043 | 9 | 7 | 8.0 | 9.7 | 0.00 | 0.00 | 0.00 | 39 | 1017.8 |
| 20260502191540 | 10 | 12 | 3.2 | 4.8 | 0.00 | 0.00 | 0.00 | 41 | 1017.7 |
| 20260502191039 | 10 | 6 | 1.6 | 3.2 | 0.00 | 0.00 | 0.00 | 41 | 1017.8 |
| 20260502190536 | 10 | 27 | 3.2 | 3.2 | 0.00 | 0.00 | 0.00 | 41 | 1017.9 |
| 20260502190033 | 10 | 20 | 1.6 | 1.6 | 0.00 | 0.00 | 0.00 | 42 | 1017.9 |
| 20260502185527 | 10 | 67 | 3.2 | 3.2 | 0.00 | 0.00 | 0.00 | 41 | 1018.0 |
| 20260502185024 | 9 | 24 | 0.0 | 0.0 | 0.00 | 0.00 | 0.00 | 45 | 1018.1 |
| 20260502184520 | 8 | 20 | 3.2 | 4.8 | 0.00 | 0.00 | 0.00 | 44 | 1018.1 |
| 20260502184016 | 8 | 156 | 6.4 | 9.7 | 0.00 | 0.00 | 0.00 | 43 | 1018.2 |
| 20260502183513 | 8 | 9 | 1.6 | 1.6 | 0.00 | 0.00 | 0.00 | 44 | 1018.0 |
| 20260502183009 | 8 | 13 | 4.8 | 4.8 | 0.00 | 0.00 | 0.00 | 42 | 1017.9 |
| 20260502182503 | 8 | 56 | 1.6 | 1.6 | 0.00 | 0.00 | 0.00 | 42 | 1018.2 |
| 20260502182000 | 8 | 15 | 3.2 | 3.2 | 0.00 | 0.00 | 0.00 | 41 | 1018.2 |
| 20260502181458 | 8 | 21 | 0.0 | 0.0 | 0.00 | 0.00 | 0.00 | 44 | 1018.1 |
| 20260502180956 | 8 | 4 | 3.2 | 3.2 | 0.00 | 0.00 | 0.00 | 41 | 1018.3 |
| 20260502180453 | 8 | 53 | 1.6 | 1.6 | 0.00 | 0.00 | 0.00 | 42 | 1018.2 |
| 20260502170412 | 9 | 14 | 9.7 | 11.3 | 0.00 | 0.00 | 0.00 | 40 | 1018.8 |
| 20260502163855 | 7 | 23 | 1.6 | 1.6 | 0.00 | 0.00 | 0.00 | 47 | 1018.9 |
| 20260502163352 | 8 | 12 | 3.2 | 4.8 | 0.00 | 0.00 | 0.00 | 45 | 1019.1 |
| 20260502162850 | 8 | 25 | 1.6 | 3.2 | 0.00 | 0.00 | 0.00 | 44 | 1018.9 |
| 20260502162346 | 8 | 159 | 1.6 | 1.6 | 0.00 | 0.00 | 0.00 | 47 | 1019.1 |
| 20260502161843 | 7 | 28 | 3.2 | 6.4 | 0.00 | 0.00 | 0.00 | 46 | 1019.0 |
| 20260502161339 | 7 | 13 | 1.6 | 1.6 | 0.00 | 0.00 | 0.00 | 47 | 1019.0 |
| 20260502160837 | 7 | 25 | 1.6 | 1.6 | 0.00 | 0.00 | 0.00 | 49 | 1019.2 |
| 20260502160336 | 6 | 11 | 1.6 | 3.2 | 0.00 | 0.00 | 0.00 | 49 | 1019.2 |
| 20260502152310 | 7 | 11 | 0.0 | 0.0 | 0.00 | 0.00 | 0.00 | 45 | 1019.1 |
| 20260502151808 | 8 | 96 | 1.6 | 1.6 | 0.00 | 0.00 | 0.00 | 45 | 1019.1 |
| 20260502151305 | 7 | 17 | 3.2 | 3.2 | 0.00 | 0.00 | 0.00 | 44 | 1019.1 |
| 20260502150803 | 7 | 4 | 3.2 | 4.8 | 0.00 | 0.00 | 0.00 | 43 | 1019.1 |
| 20260502150259 | 7 | 31 | 6.4 | 6.4 | 0.00 | 0.00 | 0.00 | 46 | 1019.2 |
| 20260502130647 | 5 | 16 | 3.2 | 3.2 | 0.00 | 0.00 | 0.00 | 58 | 1019.5 |
| 20260502130145 | 5 | 17 | 3.2 | 3.2 | 0.00 | 0.00 | 0.00 | 57 | 1019.5 |
| 20260502123630 | 5 | 17 | 6.4 | 6.4 | 0.00 | 0.00 | 0.00 | 68 | 1019.4 |
| 20260502123127 | 5 | 16 | 3.2 | 3.2 | 0.00 | 0.00 | 0.00 | 69 | 1019.5 |
| 20260502122624 | 4 | 17 | 4.8 | 4.8 | 0.00 | 0.00 | 0.00 | 69 | 1019.6 |
| 20260502122120 | 3 | 12 | 6.4 | 9.7 | 0.00 | 0.00 | 0.00 | 70 | 1019.6 |
| 20260502121619 | 3 | 16 | 3.2 | 3.2 | 0.00 | 0.00 | 0.00 | 71 | 1019.5 |
| 20260502121116 | 3 | 16 | 1.6 | 1.6 | 0.00 | 0.00 | 0.00 | 70 | 1019.3 |
| 20260502120612 | 3 | 15 | 3.2 | 3.2 | 0.00 | 0.00 | 0.00 | 71 | 1019.3 |
| 20260502120109 | 3 | 13 | 1.6 | 1.6 | 0.00 | 0.00 | 0.00 | 70 | 1019.4 |
| 20260502115607 | 3 | 18 | 0.0 | 0.0 | 0.00 | 0.00 | 0.00 | 70 | 1019.5 |
| 20260502115102 | 3 | 17 | 3.2 | 3.2 | 0.00 | 0.00 | 0.00 | 69 | 1019.3 |
| 20260502114559 | 5 | 16 | 1.6 | 1.6 | 0.00 | 0.00 | 0.00 | 65 | 1019.1 |
| 20260502114056 | 3 | 11 | 0.0 | 0.0 | 0.00 | 0.00 | 0.00 | 69 | 1019.2 |
| 20260502113553 | 2 | 11 | 0.0 | 0.0 | 0.00 | 0.00 | 0.00 | 74 | 1019.1 |
| 20260502113052 | 1 | 11 | 0.0 | 0.0 | 0.00 | 0.00 | 0.00 | 79 | 1019.1 |
| 20260502112549 | 0 | 11 | 0.0 | 0.0 | 0.00 | 0.00 | 0.00 | 84 | 1019.2 |
| 20260502112047 | 0 | 11 | 0.0 | 0.0 | 0.00 | 0.00 | 0.00 | 87 | 1019.1 |
| 20260502111544 | 0 | 11 | 0.0 | 0.0 | 0.00 | 0.00 | 0.00 | 88 | 1019.1 |
| 20260502111041 | -1 | 11 | 0.0 | 0.0 | 0.00 | 0.00 | 0.00 | 88 | 1019.1 |
| 20260502110538 | -1 | 11 | 0.0 | 0.0 | 0.00 | 0.00 | 0.00 | 88 | 1018.9 |
| 20260502110036 | -1 | 11 | 0.0 | 0.0 | 0.00 | 0.00 | 0.00 | 87 | 1019.0 |
| 20260502105533 | -1 | 11 | 0.0 | 0.0 | 0.00 | 0.00 | 0.00 | 86 | 1018.9 |
| 20260502105031 | -1 | 11 | 0.0 | 0.0 | 0.00 | 0.00 | 0.00 | 86 | 1018.9 |
| 20260502104527 | -1 | 11 | 0.0 | 0.0 | 0.00 | 0.00 | 0.00 | 87 | 1019.1 |
| 20260502104025 | -1 | 11 | 0.0 | 0.0 | 0.00 | 0.00 | 0.00 | 87 | 1018.8 |
| 20260502103523 | -1 | 11 | 0.0 | 0.0 | 0.00 | 0.00 | 0.00 | 86 | 1018.8 |
| 20260502103021 | -1 | 11 | 0.0 | 0.0 | 0.00 | 0.00 | 0.00 | 86 | 1018.9 |
| 20260502102517 | -1 | 11 | 0.0 | 0.0 | 0.00 | 0.00 | 0.00 | 85 | 1019.0 |
| 20260502102014 | -1 | 11 | 0.0 | 0.0 | 0.00 | 0.00 | 0.00 | 85 | 1018.8 |
| 20260502101512 | 0 | 11 | 0.0 | 0.0 | 0.00 | 0.00 | 0.00 | 84 | 1018.8 |
| 20260502101010 | 0 | 11 | 0.0 | 0.0 | 0.00 | 0.00 | 0.00 | 84 | 1018.9 |
| 20260502100508 | 0 | 11 | 0.0 | 0.0 | 0.00 | 0.00 | 0.00 | 83 | 1018.9 |
| 20260502091442 | 1 | 11 | 0.0 | 0.0 | 0.00 | 0.00 | 0.00 | 75 | 1018.5 |
| 20260502090940 | 1 | 11 | 0.0 | 0.0 | 0.00 | 0.00 | 0.00 | 75 | 1018.4 |
| 20260502090437 | 1 | 11 | 0.0 | 0.0 | 0.00 | 0.00 | 0.00 | 74 | 1018.5 |
| 20260502071331 | 2 | 12 | 0.0 | 0.0 | 0.00 | 0.00 | 0.00 | 71 | 1018.1 |
| 20260502070829 | 1 | 12 | 1.6 | 1.6 | 0.00 | 0.00 | 0.00 | 72 | 1018.4 |
| 20260502070326 | 1 | 12 | 0.0 | 0.0 | 0.00 | 0.00 | 0.00 | 72 | 1018.4 |
| 20260502065825 | 1 | 12 | 0.0 | 0.0 | 0.00 | 0.00 | 0.00 | 72 | 1018.3 |
| 20260502065323 | 1 | 12 | 0.0 | 0.0 | 0.00 | 0.00 | 0.00 | 72 | 1018.3 |
| 20260502064821 | 2 | 12 | 0.0 | 0.0 | 0.00 | 0.00 | 0.00 | 71 | 1018.4 |
| 20260502064319 | 2 | 12 | 0.0 | 0.0 | 0.00 | 0.00 | 0.00 | 70 | 1018.4 |
| 20260502063816 | 1 | 12 | 0.0 | 0.0 | 0.00 | 0.00 | 0.00 | 71 | 1018.4 |
| 20260502063314 | 1 | 12 | 0.0 | 0.0 | 0.00 | 0.00 | 0.00 | 71 | 1018.4 |
| 20260502062810 | 2 | 12 | 0.0 | 0.0 | 0.00 | 0.00 | 0.00 | 70 | 1018.6 |
| 20260502062308 | 2 | 12 | 0.0 | 0.0 | 0.00 | 0.00 | 0.00 | 69 | 1018.6 |
| 20260502061807 | 2 | 12 | 0.0 | 0.0 | 0.00 | 0.00 | 0.00 | 69 | 1018.5 |
| 20260502061304 | 2 | 12 | 0.0 | 0.0 | 0.00 | 0.00 | 0.00 | 68 | 1018.6 |
| 20260502060759 | 2 | 12 | 1.6 | 1.6 | 0.00 | 0.00 | 0.00 | 68 | 1018.5 |
| 20260502060255 | 2 | 12 | 0.0 | 1.6 | 0.00 | 0.00 | 0.00 | 68 | 1018.6 |
| 20260502055753 | 2 | 12 | 0.0 | 0.0 | 0.00 | 0.00 | 0.00 | 68 | 1018.7 |
| 20260502055250 | 2 | 12 | 1.6 | 1.6 | 0.00 | 0.00 | 0.00 | 67 | 1018.6 |
| 20260502054749 | 2 | 12 | 0.0 | 0.0 | 0.00 | 0.00 | 0.00 | 67 | 1018.5 |
| 20260502054247 | 2 | 12 | 0.0 | 0.0 | 0.00 | 0.00 | 0.00 | 66 | 1018.5 |
| 20260502053744 | 2 | 12 | 0.0 | 0.0 | 0.00 | 0.00 | 0.00 | 66 | 1018.6 |
| 20260502053241 | 2 | 12 | 0.0 | 0.0 | 0.00 | 0.00 | 0.00 | 66 | 1018.6 |
| 20260502052739 | 2 | 12 | 0.0 | 0.0 | 0.00 | 0.00 | 0.00 | 66 | 1018.7 |
| 20260502052237 | 2 | 12 | 0.0 | 0.0 | 0.00 | 0.00 | 0.00 | 66 | 1018.6 |
| 20260502051734 | 2 | 12 | 0.0 | 0.0 | 0.00 | 0.00 | 0.00 | 66 | 1018.5 |
| 20260502051233 | 2 | 12 | 0.0 | 0.0 | 0.00 | 0.00 | 0.00 | 66 | 1018.5 |
| 20260502050728 | 2 | 12 | 0.0 | 0.0 | 0.00 | 0.00 | 0.00 | 66 | 1018.5 |